createdAt,value
2023-05-08T00:01:27.785Z,34.54
2023-05-08T00:03:58.288Z,34.54
2023-05-08T00:06:30.079Z,34.52
2023-05-08T00:09:00.241Z,34.56
2023-05-08T00:11:30.492Z,34.57
2023-05-08T00:14:02.083Z,34.57
2023-05-08T00:16:32.694Z,34.58
2023-05-08T00:19:03.083Z,34.54
2023-05-08T00:21:33.862Z,34.54
2023-05-08T00:24:04.035Z,34.54
2023-05-08T00:26:34.484Z,34.53
2023-05-08T00:29:06.426Z,34.56
2023-05-08T00:31:37.200Z,34.58
2023-05-08T00:34:07.423Z,34.57
2023-05-08T00:36:37.646Z,34.57
2023-05-08T00:39:07.740Z,34.56
2023-05-08T00:41:38.247Z,34.55
2023-05-08T00:44:08.531Z,34.59
2023-05-08T00:46:40.137Z,34.60
2023-05-08T00:49:16.625Z,34.59
2023-05-08T00:51:53.779Z,34.57
2023-05-08T00:54:24.500Z,34.58
2023-05-08T00:56:56.619Z,34.57
2023-05-08T00:59:29.206Z,34.57
2023-05-08T01:01:59.627Z,34.57
2023-05-08T01:04:30.307Z,34.58
2023-05-08T01:07:00.621Z,34.55
2023-05-08T01:09:30.778Z,34.56
2023-05-08T01:12:22.324Z,34.54
2023-05-08T01:15:27.077Z,34.57
2023-05-08T01:18:09.519Z,34.60
2023-05-08T01:20:56.378Z,34.58
2023-05-08T01:23:54.053Z,34.60
2023-05-08T01:27:01.672Z,34.60
2023-05-08T01:29:59.533Z,34.63
2023-05-08T01:32:39.010Z,34.65
2023-05-08T01:35:44.789Z,34.65
2023-05-08T01:38:38.396Z,34.64
2023-05-08T01:41:23.620Z,34.66
2023-05-08T01:44:14.329Z,34.68
2023-05-08T01:46:48.407Z,34.69
2023-05-08T01:49:32.882Z,34.69
2023-05-08T01:52:11.061Z,34.68
2023-05-08T01:54:52.312Z,34.73
2023-05-08T01:57:24.387Z,34.72
2023-05-08T01:59:57.096Z,34.70
2023-05-08T02:02:28.901Z,34.72
2023-05-08T02:05:00.232Z,34.71
2023-05-08T02:07:31.225Z,34.68
2023-05-08T02:10:03.267Z,34.69
2023-05-08T02:12:35.334Z,34.69
2023-05-08T02:15:06.514Z,34.73
2023-05-08T02:17:39.337Z,34.72
2023-05-08T02:20:17.006Z,34.71
2023-05-08T02:22:50.087Z,34.74
2023-05-08T02:25:21.741Z,34.73
2023-05-08T02:27:54.976Z,34.74
2023-05-08T02:30:28.815Z,34.69
2023-05-08T02:33:01.400Z,34.71
2023-05-08T02:35:33.929Z,34.72
2023-05-08T02:38:05.962Z,34.73
2023-05-08T02:40:37.031Z,34.72
2023-05-08T02:43:08.486Z,34.73
2023-05-08T02:45:46.117Z,34.77
2023-05-08T02:48:31.854Z,34.74
2023-05-08T02:51:38.085Z,34.75
2023-05-08T02:54:34.974Z,34.73
2023-05-08T02:57:21.474Z,34.71
2023-05-08T03:00:11.264Z,34.74
2023-05-08T03:02:51.133Z,34.72
2023-05-08T03:05:43.712Z,34.73
2023-05-08T03:08:31.075Z,34.76
2023-05-08T03:11:06.551Z,34.76
2023-05-08T03:13:38.957Z,34.78
2023-05-08T03:16:14.358Z,34.79
2023-05-08T03:18:56.609Z,34.83
2023-05-08T03:21:31.526Z,34.83
2023-05-08T03:24:05.875Z,34.84
2023-05-08T03:26:36.849Z,34.80
2023-05-08T03:29:09.017Z,34.83
2023-05-08T03:31:40.822Z,34.85
2023-05-08T03:34:12.053Z,34.82
2023-05-08T03:36:43.377Z,34.78
2023-05-08T03:39:13.519Z,34.79
2023-05-08T03:41:43.743Z,34.83
2023-05-08T03:44:14.939Z,34.83
2023-05-08T03:46:45.798Z,34.83
2023-05-08T03:49:18.249Z,34.79
2023-05-08T03:51:49.736Z,34.79
2023-05-08T03:54:19.683Z,34.81
2023-05-08T03:56:50.393Z,34.80
2023-05-08T03:59:32.698Z,34.82
2023-05-08T04:02:25.072Z,34.83
2023-05-08T04:05:12.607Z,34.84
2023-05-08T04:08:07.864Z,34.87
2023-05-08T04:10:49.941Z,34.89
2023-05-08T04:13:31.346Z,34.87
2023-05-08T04:16:27.466Z,34.90
2023-05-08T04:19:05.374Z,34.90
2023-05-08T04:21:38.130Z,34.91
2023-05-08T04:24:14.329Z,34.95
2023-05-08T04:26:47.310Z,34.95
2023-05-08T04:29:20.579Z,34.91
2023-05-08T04:31:53.370Z,34.91
2023-05-08T04:34:24.416Z,34.94
2023-05-08T04:36:55.155Z,34.94
2023-05-08T04:39:25.570Z,34.94
2023-05-08T04:41:58.025Z,34.96
2023-05-08T04:44:29.021Z,34.95
2023-05-08T04:46:59.349Z,35.01
2023-05-08T04:49:29.839Z,35.03
2023-05-08T04:52:00.310Z,35.02
2023-05-08T04:54:30.813Z,34.99
2023-05-08T04:57:01.289Z,35.02
2023-05-08T04:59:32.055Z,34.98
2023-05-08T05:02:04.907Z,34.98
2023-05-08T05:04:36.837Z,34.98
2023-05-08T05:07:08.465Z,34.98
2023-05-08T05:09:39.652Z,35.02
2023-05-08T05:12:11.055Z,35.03
2023-05-08T05:14:41.621Z,35.04
2023-05-08T05:17:11.964Z,35.02
2023-05-08T05:19:42.583Z,35.07
2023-05-08T05:22:13.633Z,35.00
2023-05-08T05:24:44.605Z,35.04
2023-05-08T05:27:14.923Z,35.04
2023-05-08T05:29:45.405Z,35.03
2023-05-08T05:32:15.711Z,35.04
2023-05-08T05:34:46.146Z,35.02
2023-05-08T05:37:16.440Z,34.99
2023-05-08T05:39:46.786Z,35.01
2023-05-08T05:42:17.592Z,35.06
2023-05-08T05:44:48.084Z,35.06
2023-05-08T05:47:18.590Z,35.03
2023-05-08T05:49:52.754Z,35.02
2023-05-08T05:52:23.837Z,35.09
2023-05-08T05:54:55.049Z,35.09
2023-05-08T05:57:25.482Z,35.09
2023-05-08T05:59:55.849Z,35.05
2023-05-08T06:02:26.983Z,35.14
2023-05-08T06:04:57.444Z,35.15
2023-05-08T06:07:27.683Z,35.15
2023-05-08T06:09:58.658Z,35.19
2023-05-08T06:12:30.479Z,35.17
2023-05-08T06:15:01.647Z,35.22
2023-05-08T06:17:32.667Z,35.19
2023-05-08T06:20:02.844Z,35.20
2023-05-08T06:22:33.685Z,35.22
2023-05-08T06:25:03.903Z,35.20
2023-05-08T06:27:34.270Z,35.25
2023-05-08T06:30:05.143Z,35.27
2023-05-08T06:32:35.606Z,35.26
2023-05-08T06:35:06.373Z,35.28
2023-05-08T06:37:36.731Z,35.29
2023-05-08T06:40:12.110Z,35.29
2023-05-08T06:42:45.845Z,35.30
2023-05-08T06:45:16.306Z,35.34
2023-05-08T06:47:46.885Z,35.29
2023-05-08T06:50:17.190Z,35.26
2023-05-08T06:52:47.679Z,35.32
2023-05-08T06:55:17.991Z,35.31
2023-05-08T06:57:48.885Z,35.33
2023-05-08T07:00:19.227Z,35.36
2023-05-08T07:02:49.400Z,35.39
2023-05-08T07:05:20.654Z,35.41
2023-05-08T07:07:51.026Z,35.38
2023-05-08T07:10:23.570Z,35.41
2023-05-08T07:12:53.949Z,35.42
2023-05-08T07:15:26.597Z,35.43
2023-05-08T07:17:57.523Z,35.43
2023-05-08T07:20:27.774Z,35.44
2023-05-08T07:22:57.989Z,35.43
2023-05-08T07:25:28.340Z,35.45
2023-05-08T07:28:01.003Z,35.44
2023-05-08T07:30:31.818Z,35.50
2023-05-08T07:33:02.005Z,35.44
2023-05-08T07:35:34.150Z,35.45
2023-05-08T07:38:04.296Z,35.43
2023-05-08T07:40:34.691Z,35.40
2023-05-08T07:43:05.004Z,35.41
2023-05-08T07:45:35.498Z,35.47
2023-05-08T07:48:05.922Z,35.46
2023-05-08T07:50:36.836Z,35.47
2023-05-08T07:53:07.107Z,35.49
2023-05-08T07:55:37.562Z,35.49
2023-05-08T07:58:07.852Z,35.45
2023-05-08T08:00:39.060Z,35.47
2023-05-08T08:03:09.694Z,35.47
2023-05-08T08:05:40.122Z,35.49
2023-05-08T08:08:10.420Z,35.47
2023-05-08T08:10:42.015Z,35.46
2023-05-08T08:13:12.413Z,35.46
2023-05-08T08:15:43.803Z,35.46
2023-05-08T08:18:14.174Z,35.50
2023-05-08T08:20:44.663Z,35.50
2023-05-08T08:23:14.931Z,35.50
2023-05-08T08:25:45.204Z,35.47
2023-05-08T08:28:15.515Z,35.49
2023-05-08T08:30:45.832Z,35.48
2023-05-08T08:33:17.576Z,35.52
2023-05-08T08:35:49.354Z,35.54
2023-05-08T08:38:19.652Z,35.54
2023-05-08T08:40:50.056Z,35.55
2023-05-08T08:43:20.701Z,35.56
2023-05-08T08:45:50.893Z,35.58
2023-05-08T08:48:22.921Z,35.59
2023-05-08T08:50:56.224Z,35.57
2023-05-08T08:53:32.484Z,35.53
2023-05-08T08:56:04.693Z,35.56
2023-05-08T08:58:41.895Z,35.57
2023-05-08T09:01:17.878Z,35.54
2023-05-08T09:03:49.757Z,35.59
2023-05-08T09:06:21.194Z,35.56
2023-05-08T09:08:51.446Z,35.56
2023-05-08T09:11:21.756Z,35.59
2023-05-08T09:13:51.972Z,35.58
2023-05-08T09:16:22.333Z,35.56
2023-05-08T09:18:52.793Z,35.58
2023-05-08T09:21:25.532Z,35.51
2023-05-08T09:23:59.649Z,35.54
2023-05-08T09:26:39.771Z,35.49
2023-05-08T09:29:24.549Z,35.55
2023-05-08T09:31:56.236Z,35.57
2023-05-08T09:34:31.696Z,35.58
2023-05-08T09:37:07.942Z,35.57
2023-05-08T09:39:38.243Z,35.57
2023-05-08T09:42:08.680Z,35.50
2023-05-08T09:44:56.612Z,35.54
2023-05-08T09:47:27.864Z,35.53
2023-05-08T09:50:10.362Z,35.53
2023-05-08T09:52:42.420Z,35.53
2023-05-08T09:55:13.989Z,35.51
2023-05-08T09:58:02.034Z,35.54
2023-05-08T10:00:32.485Z,35.48
2023-05-08T13:18:21.498Z,34.48
2023-05-08T13:20:51.828Z,34.29
2023-05-08T13:23:22.744Z,34.13
2023-05-08T13:25:53.779Z,34.10
2023-05-08T13:28:24.523Z,34.02
2023-05-08T13:30:54.906Z,34.05
2023-05-08T13:33:25.315Z,33.99
2023-05-08T13:35:57.624Z,34.00
2023-05-08T13:38:27.922Z,33.86
2023-05-08T13:40:58.114Z,33.91
2023-05-08T13:43:28.507Z,33.90
2023-05-08T13:45:58.802Z,33.92
2023-05-08T13:48:29.172Z,33.85
2023-05-08T13:50:59.373Z,33.87
2023-05-08T13:53:29.671Z,33.88
2023-05-08T13:56:00.098Z,33.94
2023-05-08T13:58:30.451Z,33.94
2023-05-08T14:01:10.369Z,33.85
2023-05-08T14:03:44.475Z,33.78
2023-05-08T14:06:14.971Z,33.75
2023-05-08T14:08:49.606Z,33.81
2023-05-08T14:11:21.936Z,34.02
2023-05-08T23:03:34.264Z,32.92
2023-05-08T23:06:04.626Z,32.91
2023-05-08T23:08:34.817Z,32.89
2023-05-08T23:11:04.933Z,32.83
2023-05-08T23:13:35.329Z,32.86
2023-05-08T23:16:06.269Z,32.88
2023-05-08T23:18:36.935Z,32.84
2023-05-08T23:21:08.899Z,32.88
2023-05-08T23:23:40.026Z,32.91
2023-05-08T23:26:10.368Z,32.90
2023-05-08T23:28:41.231Z,32.93
2023-05-08T23:31:11.530Z,32.95
2023-05-08T23:33:43.313Z,32.95
2023-05-08T23:36:15.282Z,32.97
2023-05-08T23:38:45.748Z,32.91
2023-05-08T23:41:16.257Z,32.95
2023-05-08T23:43:46.756Z,32.93
2023-05-08T23:46:16.988Z,32.94
2023-05-08T23:48:47.428Z,32.93
2023-05-08T23:51:17.709Z,32.96
2023-05-08T23:53:47.994Z,32.94
2023-05-08T23:56:18.296Z,32.94
2023-05-08T23:58:48.558Z,32.94
